Time;durP1;ratioP1;P1;durP2;ratioP2;P2;SDS_P1;SDS_P2;PMS_P1;PMS_P2;Temp;Humidity;BMP_temperature;BMP_pressure;BME280_temperature;BME280_humidity;BME280_pressure;Samples;Min_cycle;Max_cycle;Signal;HPM_P1;HPM_P2
2022/03/03 00:01:41;;;;;;;107.38;36.05;;;1.90;99.90;;;;;;5095802;28;20040;-70
2022/03/03 00:04:07;;;;;;;117.38;38.78;;;1.90;99.90;;;;;;5081866;28;20101;-69
2022/03/03 00:06:34;;;;;;;114.30;38.65;;;1.80;99.90;;;;;;5103492;28;20122;-69
2022/03/03 00:09:00;;;;;;;108.65;36.95;;;1.80;99.90;;;;;;5098838;28;20498;-71
2022/03/03 00:11:26;;;;;;;111.20;38.63;;;1.80;99.90;;;;;;5100038;28;20039;-69
2022/03/03 00:13:52;;;;;;;111.88;38.30;;;1.80;99.90;;;;;;5082957;28;20606;-70
2022/03/03 00:16:18;;;;;;;107.85;37.20;;;1.70;99.90;;;;;;5101189;28;20039;-70
2022/03/03 00:18:44;;;;;;;109.82;36.50;;;1.70;99.90;;;;;;5097595;28;20113;-69
2022/03/03 00:21:10;;;;;;;103.93;37.80;;;1.70;99.90;;;;;;5079203;28;20076;-71
2022/03/03 00:23:36;;;;;;;102.35;37.05;;;1.70;99.90;;;;;;5079770;28;20040;-70
2022/03/03 00:26:02;;;;;;;108.07;38.13;;;1.70;99.90;;;;;;5102378;28;20073;-70
2022/03/03 00:28:28;;;;;;;104.03;37.42;;;1.70;99.90;;;;;;5094118;28;20051;-69
2022/03/03 00:30:54;;;;;;;112.07;37.58;;;1.60;99.90;;;;;;5101946;28;20087;-71
2022/03/03 00:33:20;;;;;;;100.07;36.50;;;1.60;99.90;;;;;;5090134;28;20097;-70
2022/03/03 00:35:46;;;;;;;100.30;36.47;;;1.60;99.90;;;;;;5105461;28;20040;-69
2022/03/03 00:38:12;;;;;;;106.45;36.33;;;1.60;99.90;;;;;;5099927;28;20093;-69
2022/03/03 00:40:39;;;;;;;97.22;35.05;;;1.60;99.90;;;;;;5096817;28;20357;-70
2022/03/03 00:43:06;;;;;;;105.20;36.15;;;1.50;99.90;;;;;;5106517;28;20064;-69
2022/03/03 00:45:37;;;;;;;97.00;35.25;;;1.60;99.90;;;;;;5100560;28;20494;-69
2022/03/03 00:48:04;;;;;;;101.10;36.45;;;1.50;99.90;;;;;;5074339;28;20040;-70
2022/03/03 00:50:30;;;;;;;95.88;35.47;;;1.50;99.90;;;;;;5099601;28;20143;-71
2022/03/03 00:52:56;;;;;;;99.30;34.92;;;1.50;99.90;;;;;;5105439;28;20551;-70
2022/03/03 00:55:22;;;;;;;93.75;34.22;;;1.50;99.90;;;;;;5101830;28;20047;-71
2022/03/03 00:57:48;;;;;;;91.38;34.08;;;1.50;99.90;;;;;;5104101;28;20472;-69
2022/03/03 01:00:15;;;;;;;94.55;34.55;;;1.50;99.90;;;;;;5096938;28;20040;-69
2022/03/03 01:02:41;;;;;;;95.75;34.72;;;1.40;99.90;;;;;;5086429;28;20444;-69
2022/03/03 01:05:08;;;;;;;94.57;34.83;;;2.00;99.90;;;;;;5085419;28;20560;-69
2022/03/03 01:07:34;;;;;;;99.28;34.35;;;1.40;99.90;;;;;;5101594;28;20043;-69
2022/03/03 01:10:00;;;;;;;93.10;33.97;;;1.40;99.90;;;;;;5097365;28;20431;-69
2022/03/03 01:12:26;;;;;;;90.95;32.45;;;1.30;99.90;;;;;;5096210;28;20063;-71
2022/03/03 01:14:52;;;;;;;92.30;33.95;;;1.30;99.90;;;;;;5097415;28;20050;-70
2022/03/03 01:17:18;;;;;;;96.88;35.03;;;1.30;99.90;;;;;;5078418;28;20036;-70
2022/03/03 01:19:44;;;;;;;100.60;36.78;;;1.30;99.90;;;;;;5098987;28;20043;-69
2022/03/03 01:22:10;;;;;;;92.68;34.85;;;1.30;99.90;;;;;;5095726;28;20503;-69
2022/03/03 01:24:36;;;;;;;93.18;33.65;;;1.20;99.90;;;;;;5079417;28;20079;-69
2022/03/03 01:27:03;;;;;;;91.25;34.90;;;1.30;99.90;;;;;;5095582;28;20048;-70
2022/03/03 01:29:29;;;;;;;92.88;33.33;;;1.30;99.90;;;;;;5099134;28;20452;-72
2022/03/03 01:31:55;;;;;;;89.93;34.45;;;1.30;99.90;;;;;;5097923;28;20043;-69
2022/03/03 01:34:21;;;;;;;92.63;33.97;;;1.30;99.90;;;;;;5094341;28;20042;-70
2022/03/03 01:36:47;;;;;;;94.85;33.53;;;1.30;99.90;;;;;;5092889;28;20411;-70
2022/03/03 01:39:14;;;;;;;91.47;34.45;;;1.30;99.90;;;;;;5097718;28;20440;-71
2022/03/03 01:41:41;;;;;;;98.97;34.67;;;1.30;99.90;;;;;;5096448;28;20044;-69
2022/03/03 01:44:08;;;;;;;93.82;33.42;;;1.20;99.90;;;;;;5077396;28;20203;-70
2022/03/03 01:46:34;;;;;;;86.75;33.97;;;1.20;99.90;;;;;;5081259;28;20050;-70
2022/03/03 01:49:00;;;;;;;89.72;35.10;;;1.30;99.90;;;;;;5094719;28;20134;-71
2022/03/03 01:51:27;;;;;;;84.10;32.88;;;1.20;99.90;;;;;;5101652;28;20032;-70
2022/03/03 01:53:53;;;;;;;81.60;31.23;;;1.20;99.90;;;;;;5108289;28;20115;-69
2022/03/03 01:56:19;;;;;;;87.65;32.08;;;1.10;99.90;;;;;;5093869;28;20463;-70
2022/03/03 01:58:45;;;;;;;86.95;33.13;;;1.00;99.90;;;;;;5100669;28;20133;-70
2022/03/03 02:01:14;;;;;;;93.57;35.42;;;0.90;99.90;;;;;;5076720;28;20044;-70
2022/03/03 02:03:40;;;;;;;86.15;34.05;;;0.90;99.90;;;;;;5081523;28;20551;-69
2022/03/03 02:06:06;;;;;;;90.65;34.08;;;0.80;99.90;;;;;;5099166;28;20114;-69
2022/03/03 02:08:32;;;;;;;88.55;33.83;;;0.90;99.90;;;;;;5103062;28;20048;-70
2022/03/03 02:10:58;;;;;;;91.80;33.45;;;0.80;99.90;;;;;;5104686;28;20088;-70
2022/03/03 02:13:24;;;;;;;87.45;34.03;;;0.80;99.90;;;;;;5084298;28;20381;-71
2022/03/03 02:15:54;;;;;;;92.15;33.55;;;0.90;99.90;;;;;;5102884;28;20550;-69
2022/03/03 02:18:21;;;;;;;92.32;34.25;;;0.90;99.90;;;;;;5098848;28;20043;-72
2022/03/03 02:20:48;;;;;;;89.53;33.88;;;0.90;99.90;;;;;;5075006;28;20055;-69
2022/03/03 02:23:14;;;;;;;91.40;33.90;;;0.90;99.90;;;;;;5077270;28;20052;-69
2022/03/03 02:25:40;;;;;;;89.90;34.67;;;0.90;99.90;;;;;;5103282;28;20044;-70
2022/03/03 02:28:06;;;;;;;85.88;33.78;;;0.90;99.90;;;;;;5078264;28;20498;-70
2022/03/03 02:30:32;;;;;;;84.07;32.90;;;0.90;99.90;;;;;;5094116;28;20043;-71
2022/03/03 02:32:59;;;;;;;90.40;34.47;;;0.90;99.90;;;;;;5102062;28;20036;-69
2022/03/03 02:35:25;;;;;;;89.88;33.95;;;0.80;99.90;;;;;;5097289;28;20083;-72
2022/03/03 02:37:50;;;;;;;90.18;34.20;;;1.20;99.90;;;;;;5056758;28;20082;-69
2022/03/03 02:40:22;;;;;;;93.65;35.05;;;0.80;99.90;;;;;;5100493;28;20039;-69
2022/03/03 02:42:49;;;;;;;86.97;33.22;;;0.80;99.90;;;;;;5064846;28;20027;-69
2022/03/03 02:45:15;;;;;;;94.93;34.25;;;0.80;99.90;;;;;;5098683;28;20166;-69
2022/03/03 02:47:42;;;;;;;97.43;35.45;;;0.80;99.90;;;;;;5092172;28;20118;-69
2022/03/03 02:50:10;;;;;;;90.10;34.55;;;0.80;99.90;;;;;;5104276;28;20134;-69
2022/03/03 02:52:36;;;;;;;89.18;34.30;;;0.80;99.90;;;;;;5099758;28;20126;-69
2022/03/03 02:55:03;;;;;;;94.10;34.65;;;0.80;99.90;;;;;;5095193;28;20100;-69
2022/03/03 03:00:14;;;;;;;82.03;32.05;;;0.80;99.90;;;;;;5090659;28;20040;-68
2022/03/03 03:02:40;;;;;;;87.75;32.92;;;0.80;99.90;;;;;;5100273;28;20433;-70
2022/03/03 03:05:06;;;;;;;86.00;33.63;;;0.80;99.90;;;;;;5075275;28;20040;-68
2022/03/03 03:07:32;;;;;;;92.40;33.42;;;0.80;99.90;;;;;;5091513;28;20044;-69
2022/03/03 03:09:58;;;;;;;88.07;32.58;;;0.90;99.90;;;;;;5090745;28;20043;-69
2022/03/03 03:12:23;;;;;;;90.65;33.45;;;0.80;99.90;;;;;;5080343;28;20050;-69
2022/03/03 03:14:49;;;;;;;88.13;32.72;;;0.80;99.90;;;;;;5090366;28;20544;-68
2022/03/03 03:17:15;;;;;;;86.13;32.80;;;0.80;99.90;;;;;;5090438;28;20084;-68
2022/03/03 03:19:41;;;;;;;90.03;33.55;;;0.80;99.90;;;;;;5089808;28;20055;-68
2022/03/03 03:22:07;;;;;;;85.32;33.05;;;0.80;99.90;;;;;;5076018;28;20088;-69
2022/03/03 03:24:33;;;;;;;86.75;32.13;;;0.80;99.90;;;;;;5090012;28;20032;-69
2022/03/03 03:26:59;;;;;;;85.55;32.50;;;0.70;99.90;;;;;;5090477;28;20116;-70
2022/03/03 03:29:25;;;;;;;93.10;34.00;;;0.70;99.90;;;;;;5090719;28;20430;-69
2022/03/03 03:31:51;;;;;;;88.85;34.00;;;0.70;99.90;;;;;;5079901;28;20495;-68
2022/03/03 03:34:16;;;;;;;84.53;31.15;;;0.70;99.90;;;;;;5099929;28;20472;-68
2022/03/03 03:36:42;;;;;;;84.90;32.95;;;0.70;99.90;;;;;;5088960;28;20476;-68
2022/03/03 03:39:08;;;;;;;90.95;32.83;;;0.70;99.90;;;;;;5081635;28;20048;-69
2022/03/03 03:41:34;;;;;;;75.25;30.00;;;0.70;99.90;;;;;;5074533;28;20751;-70
2022/03/03 03:44:00;;;;;;;81.25;30.95;;;1.30;99.90;;;;;;5082682;28;20529;-68
2022/03/03 03:46:26;;;;;;;83.43;30.92;;;0.70;99.90;;;;;;5090187;28;20063;-68
2022/03/03 03:48:52;;;;;;;82.53;30.42;;;0.70;99.90;;;;;;5088981;28;20468;-69
2022/03/03 03:51:18;;;;;;;75.47;29.15;;;0.70;99.90;;;;;;5089836;28;20476;-68
2022/03/03 03:53:44;;;;;;;74.45;29.80;;;0.70;99.90;;;;;;5079977;28;20054;-69
2022/03/03 03:56:10;;;;;;;79.80;31.83;;;0.70;99.90;;;;;;5089380;28;20036;-69
2022/03/03 03:58:36;;;;;;;70.80;28.67;;;0.70;99.90;;;;;;5089713;28;20059;-68
2022/03/03 04:01:02;;;;;;;80.57;30.48;;;0.60;99.90;;;;;;5090183;28;20042;-68
2022/03/03 04:03:28;;;;;;;78.25;28.95;;;0.60;99.90;;;;;;5076424;28;20089;-68
2022/03/03 04:05:54;;;;;;;72.05;29.02;;;0.60;99.90;;;;;;5092895;28;20542;-68
2022/03/03 04:08:20;;;;;;;76.65;29.67;;;0.60;99.90;;;;;;5094129;28;20105;-69
2022/03/03 04:10:47;;;;;;;75.20;30.02;;;0.60;99.90;;;;;;5093227;28;20054;-68
2022/03/03 04:13:15;;;;;;;70.97;28.38;;;0.50;99.90;;;;;;5093790;28;20995;-68
2022/03/03 04:15:41;;;;;;;77.72;30.63;;;0.50;99.90;;;;;;5093051;28;20406;-68
2022/03/03 04:18:07;;;;;;;76.18;30.98;;;0.50;99.90;;;;;;5093187;28;20384;-68
2022/03/03 04:20:33;;;;;;;75.88;30.63;;;0.50;99.90;;;;;;5093487;28;20079;-68
2022/03/03 04:22:59;;;;;;;75.10;31.38;;;0.50;99.90;;;;;;5093700;28;20431;-70
2022/03/03 04:25:25;;;;;;;75.85;29.33;;;0.60;99.90;;;;;;5093175;28;20392;-69
2022/03/03 04:27:51;;;;;;;82.43;31.27;;;0.60;99.90;;;;;;5094070;28;20044;-68
2022/03/03 04:30:17;;;;;;;76.25;29.27;;;0.60;99.90;;;;;;5092722;28;20040;-68
2022/03/03 04:32:43;;;;;;;79.45;30.92;;;0.60;99.90;;;;;;5092497;28;20044;-68
2022/03/03 04:35:10;;;;;;;76.78;30.48;;;0.60;99.90;;;;;;5092725;28;20043;-69
2022/03/03 04:37:37;;;;;;;76.30;31.58;;;0.60;99.90;;;;;;5084096;28;20135;-68
2022/03/03 04:40:05;;;;;;;75.38;29.35;;;0.60;99.90;;;;;;5091613;28;20048;-68
2022/03/03 04:42:31;;;;;;;75.90;29.63;;;0.60;99.90;;;;;;5076231;28;20040;-69
2022/03/03 04:44:57;;;;;;;75.30;29.90;;;0.50;99.90;;;;;;5076011;28;20047;-69
2022/03/03 04:47:23;;;;;;;77.00;29.35;;;0.50;99.90;;;;;;5076098;28;20388;-69
2022/03/03 04:49:49;;;;;;;70.53;29.05;;;0.50;99.90;;;;;;5092246;28;20353;-68
2022/03/03 04:52:15;;;;;;;72.63;29.13;;;0.50;99.90;;;;;;5092447;28;20044;-68
2022/03/03 04:54:42;;;;;;;71.07;29.33;;;0.40;99.90;;;;;;5072424;28;20040;-69
2022/03/03 04:57:08;;;;;;;76.88;29.35;;;0.40;99.90;;;;;;5085428;28;20048;-68
2022/03/03 04:59:34;;;;;;;75.03;30.13;;;0.40;99.90;;;;;;5075549;28;20418;-68
2022/03/03 05:01:59;;;;;;;82.65;30.67;;;0.40;99.90;;;;;;5092242;28;20044;-70
2022/03/03 05:04:25;;;;;;;77.13;30.42;;;0.30;99.90;;;;;;5092145;28;20127;-70
2022/03/03 05:06:51;;;;;;;76.43;31.25;;;0.40;99.90;;;;;;5092487;28;20040;-67
2022/03/03 05:09:17;;;;;;;73.68;29.90;;;0.40;99.90;;;;;;5092456;28;20066;-70
2022/03/03 05:11:43;;;;;;;82.18;31.20;;;0.30;99.90;;;;;;5075675;28;20036;-68
2022/03/03 05:14:09;;;;;;;74.45;31.02;;;0.30;99.90;;;;;;5063681;28;20484;-68
2022/03/03 05:16:35;;;;;;;84.13;31.83;;;0.30;99.90;;;;;;5074920;28;20077;-68
2022/03/03 05:19:01;;;;;;;81.82;30.73;;;0.30;99.90;;;;;;5057840;28;20130;-68
2022/03/03 05:21:27;;;;;;;82.90;32.28;;;0.30;99.90;;;;;;5075382;28;20036;-68
2022/03/03 05:23:53;;;;;;;79.97;31.33;;;0.30;99.90;;;;;;5075261;28;20044;-67
2022/03/03 05:26:19;;;;;;;81.78;32.33;;;0.20;99.90;;;;;;5075189;28;20556;-69
2022/03/03 05:28:45;;;;;;;77.57;30.30;;;0.30;99.90;;;;;;5074911;28;20059;-68
2022/03/03 05:31:11;;;;;;;77.85;31.00;;;0.30;99.90;;;;;;5074704;28;20047;-68
2022/03/03 05:33:37;;;;;;;81.25;32.13;;;0.30;99.90;;;;;;5091376;28;20376;-68
2022/03/03 05:36:06;;;;;;;80.72;32.45;;;0.30;99.90;;;;;;5049946;28;20120;-69
2022/03/03 05:38:33;;;;;;;85.95;32.40;;;0.30;99.90;;;;;;5074568;28;20067;-69
2022/03/03 05:41:00;;;;;;;83.93;31.88;;;0.30;99.90;;;;;;5092084;28;20135;-69
2022/03/03 05:43:27;;;;;;;80.63;33.15;;;0.30;99.90;;;;;;5074825;28;20052;-67
2022/03/03 05:45:54;;;;;;;85.20;34.58;;;0.30;99.90;;;;;;5091242;28;20115;-67
2022/03/03 05:48:21;;;;;;;80.32;33.20;;;0.30;99.90;;;;;;5074557;28;20048;-68
2022/03/03 05:50:47;;;;;;;82.97;31.92;;;0.20;99.90;;;;;;5091623;28;20434;-67
2022/03/03 05:53:13;;;;;;;87.18;35.17;;;0.40;99.90;;;;;;5074355;28;20066;-68
2022/03/03 05:56:01;;;;;;;81.45;32.17;;;0.20;99.90;;;;;;5091211;28;20081;-68
2022/03/03 05:58:40;;;;;;;89.07;31.83;;;0.20;99.90;;;;;;5090887;28;20373;-68
2022/03/03 06:01:08;;;;;;;86.18;32.67;;;0.20;99.90;;;;;;5091262;28;20044;-68
2022/03/03 06:03:35;;;;;;;83.28;32.75;;;0.20;99.90;;;;;;5073285;28;20092;-67
2022/03/03 06:06:19;;;;;;;87.47;33.58;;;0.10;99.90;;;;;;5090097;28;20048;-67
2022/03/03 06:09:08;;;;;;;76.82;32.63;;;0.10;99.90;;;;;;5090263;28;20128;-67
2022/03/03 06:11:54;;;;;;;87.68;32.65;;;0.30;99.90;;;;;;5091528;28;20071;-69
2022/03/03 06:14:37;;;;;;;82.22;32.67;;;0.10;99.90;;;;;;5090782;28;20044;-68
2022/03/03 06:17:04;;;;;;;93.05;34.70;;;0.10;99.90;;;;;;5090734;28;20452;-69
2022/03/03 06:19:33;;;;;;;87.22;32.55;;;0.20;99.90;;;;;;5091285;28;20128;-67
2022/03/03 06:21:59;;;;;;;87.75;33.47;;;0.20;99.90;;;;;;5091191;28;20048;-69
2022/03/03 06:24:25;;;;;;;89.07;32.45;;;0.20;99.90;;;;;;5090667;28;20040;-68
2022/03/03 06:26:51;;;;;;;92.70;33.75;;;0.20;99.90;;;;;;5074135;28;20079;-67
2022/03/03 06:29:17;;;;;;;90.68;35.15;;;0.20;99.90;;;;;;5073894;28;20452;-68
2022/03/03 06:31:43;;;;;;;94.32;33.80;;;0.20;99.90;;;;;;5074104;28;20051;-67
2022/03/03 06:34:09;;;;;;;95.63;33.75;;;0.20;99.90;;;;;;5090445;28;20058;-69
2022/03/03 06:36:35;;;;;;;94.35;34.40;;;0.80;99.90;;;;;;5090621;28;20060;-67
2022/03/03 06:39:01;;;;;;;91.57;34.67;;;0.20;99.90;;;;;;5054350;28;20485;-68
2022/03/03 06:41:28;;;;;;;94.93;34.92;;;0.30;99.90;;;;;;5101072;28;20090;-67
2022/03/03 06:43:54;;;;;;;95.97;35.25;;;0.30;99.90;;;;;;5080761;28;20081;-67
2022/03/03 06:46:21;;;;;;;89.57;33.75;;;0.40;99.90;;;;;;5090273;28;20044;-66
2022/03/03 06:48:47;;;;;;;93.20;33.55;;;1.10;99.90;;;;;;5074473;28;20036;-68
2022/03/03 06:51:15;;;;;;;91.70;33.28;;;0.50;99.90;;;;;;5090488;28;20058;-67
2022/03/03 06:53:45;;;;;;;92.32;34.28;;;0.60;99.90;;;;;;5090623;28;20048;-69
2022/03/03 06:56:12;;;;;;;87.55;34.15;;;1.20;99.90;;;;;;5089680;28;20445;-68
2022/03/03 06:58:39;;;;;;;88.13;33.67;;;0.60;99.90;;;;;;5090511;28;20119;-67
2022/03/03 07:01:07;;;;;;;86.30;32.05;;;0.70;99.90;;;;;;5073805;28;20055;-67
2022/03/03 07:03:34;;;;;;;86.82;32.08;;;0.70;99.90;;;;;;5090528;28;20101;-67
2022/03/03 07:06:01;;;;;;;88.43;33.90;;;0.70;99.90;;;;;;5089964;28;20039;-70
2022/03/03 07:08:27;;;;;;;83.05;32.38;;;0.80;99.90;;;;;;5090684;28;20039;-67
2022/03/03 07:10:53;;;;;;;87.88;33.50;;;0.80;99.90;;;;;;5090406;28;20121;-68
2022/03/03 07:13:20;;;;;;;88.32;32.58;;;0.90;99.90;;;;;;5090174;28;20047;-68
2022/03/03 07:15:51;;;;;;;84.50;31.70;;;1.00;99.90;;;;;;5089110;28;20567;-68
2022/03/03 07:18:24;;;;;;;;;;;1.10;99.90;;;;;;5090153;28;20434;-68
2022/03/03 07:21:06;;;;;;;76.63;30.13;;;1.10;99.90;;;;;;5073881;28;19935;-68
2022/03/03 07:23:48;;;;;;;78.65;32.88;;;1.20;99.90;;;;;;5087192;28;20034;-69
2022/03/03 07:26:16;;;;;;;81.53;31.92;;;1.30;99.90;;;;;;5089631;28;20104;-69
2022/03/03 07:28:49;;;;;;;82.72;31.80;;;1.30;99.90;;;;;;5073454;28;20048;-67
2022/03/03 07:31:17;;;;;;;84.07;31.92;;;1.40;99.90;;;;;;5090303;28;20036;-71
2022/03/03 07:33:58;;;;;;;81.85;32.03;;;1.50;99.90;;;;;;5073482;28;20108;-68
2022/03/03 07:36:32;;;;;;;78.30;31.73;;;1.60;99.90;;;;;;5090458;28;20086;-68
2022/03/03 07:39:05;;;;;;;78.65;30.45;;;1.80;99.90;;;;;;5085237;28;20399;-70
2022/03/03 07:41:31;;;;;;;78.88;31.23;;;1.70;99.90;;;;;;5078821;28;20036;-69
2022/03/03 07:43:59;;;;;;;81.13;31.48;;;1.80;99.90;;;;;;5094524;28;20044;-68
2022/03/03 07:46:26;;;;;;;75.05;30.83;;;1.90;99.90;;;;;;5104484;28;20093;-68
2022/03/03 07:48:53;;;;;;;75.07;31.13;;;2.00;99.90;;;;;;5077233;28;20514;-69
2022/03/03 07:51:20;;;;;;;77.78;31.15;;;2.00;99.90;;;;;;5098956;28;20727;-68
2022/03/03 07:53:47;;;;;;;87.90;33.38;;;2.10;99.90;;;;;;5096110;28;20080;-69
2022/03/03 07:56:41;;;;;;;83.10;32.78;;;2.20;99.90;;;;;;5081198;28;20044;-68
2022/03/03 07:59:11;;;;;;;74.28;31.15;;;2.20;99.90;;;;;;5091692;28;20083;-70
2022/03/03 08:01:38;;;;;;;77.43;30.90;;;2.40;99.90;;;;;;5099243;28;20479;-68
2022/03/03 08:04:05;;;;;;;75.65;30.55;;;2.70;99.90;;;;;;5103854;28;20399;-69
2022/03/03 08:06:32;;;;;;;79.57;32.15;;;2.50;99.90;;;;;;5104682;28;20129;-69
2022/03/03 08:09:01;;;;;;;71.80;31.42;;;2.60;99.90;;;;;;5075538;28;20065;-69
2022/03/03 08:11:29;;;;;;;72.05;29.85;;;2.70;99.90;;;;;;5060087;28;20047;-69
2022/03/03 08:13:56;;;;;;;78.45;31.15;;;2.80;99.90;;;;;;5087819;28;20036;-68
2022/03/03 08:16:22;;;;;;;72.60;30.42;;;2.90;99.90;;;;;;5084294;28;20181;-68
2022/03/03 08:18:48;;;;;;;69.55;30.35;;;3.00;99.90;;;;;;5093164;28;20130;-68
2022/03/03 08:21:15;;;;;;;69.85;29.90;;;3.10;99.90;;;;;;5076794;28;20044;-69
2022/03/03 08:23:43;;;;;;;70.78;29.63;;;3.30;99.90;;;;;;5092847;28;20491;-69
2022/03/03 08:26:12;;;;;;;73.07;30.88;;;3.40;99.90;;;;;;5076337;28;20051;-69
2022/03/03 08:28:41;;;;;;;76.90;31.50;;;3.50;99.90;;;;;;5092817;28;20048;-68
2022/03/03 08:31:08;;;;;;;72.38;29.90;;;3.60;99.90;;;;;;5076224;28;20046;-68
2022/03/03 08:33:54;;;;;;;74.32;31.08;;;3.60;99.90;;;;;;5092934;28;20040;-69
2022/03/03 08:36:44;;;;;;;65.35;28.52;;;3.70;99.90;;;;;;5092476;28;20100;-68
2022/03/03 08:39:14;;;;;;;70.05;28.80;;;3.80;99.90;;;;;;5074523;28;20044;-69
2022/03/03 08:41:41;;;;;;;69.57;30.40;;;4.00;99.90;;;;;;5092691;28;20036;-69
2022/03/03 08:44:09;;;;;;;63.03;29.15;;;4.10;99.90;;;;;;5045714;28;20075;-68
2022/03/03 08:46:38;;;;;;;63.70;28.30;;;4.10;99.90;;;;;;5077346;28;20484;-68
2022/03/03 08:49:07;;;;;;;66.72;28.65;;;4.20;99.90;;;;;;5080387;28;20560;-69
2022/03/03 08:51:34;;;;;;;74.97;31.17;;;4.30;99.90;;;;;;5076231;28;20065;-69
2022/03/03 08:54:00;;;;;;;67.15;30.15;;;4.30;99.90;;;;;;5096883;28;20488;-69
2022/03/03 08:56:26;;;;;;;69.65;31.42;;;4.40;99.90;;;;;;5079693;28;20122;-68
2022/03/03 08:58:55;;;;;;;62.85;29.30;;;4.50;99.90;;;;;;5093039;28;20486;-68
2022/03/03 09:01:22;;;;;;;64.40;29.05;;;4.70;99.90;;;;;;5090948;28;20055;-68
2022/03/03 09:03:48;;;;;;;65.43;28.80;;;4.80;99.90;;;;;;5077604;28;20657;-68
2022/03/03 09:06:15;;;;;;;64.60;28.52;;;4.90;99.90;;;;;;5096092;28;20048;-68
2022/03/03 09:08:41;;;;;;;60.47;27.77;;;5.10;99.90;;;;;;5076008;28;20044;-68
2022/03/03 09:11:07;;;;;;;57.55;26.80;;;5.10;99.90;;;;;;5092832;28;20036;-68
2022/03/03 09:13:33;;;;;;;58.53;28.02;;;5.30;99.90;;;;;;5076797;28;20092;-68
2022/03/03 09:15:59;;;;;;;60.50;27.50;;;5.30;99.90;;;;;;5093362;28;20043;-69
2022/03/03 09:18:25;;;;;;;59.25;27.95;;;5.40;99.90;;;;;;5077700;28;20036;-68
2022/03/03 09:20:51;;;;;;;59.53;25.75;;;5.60;99.90;;;;;;5087012;28;20055;-68
2022/03/03 09:23:18;;;;;;;53.20;25.58;;;5.60;99.90;;;;;;5076028;28;20058;-68
2022/03/03 09:25:44;;;;;;;55.28;25.70;;;5.70;99.90;;;;;;5096765;28;20056;-68
2022/03/03 09:28:10;;;;;;;50.35;24.95;;;5.90;99.90;;;;;;5098410;28;20040;-69
2022/03/03 09:30:37;;;;;;;49.92;24.95;;;6.10;99.90;;;;;;5085462;28;20071;-70
2022/03/03 09:33:03;;;;;;;50.17;24.35;;;6.30;99.90;;;;;;5092435;28;20040;-73
2022/03/03 09:35:30;;;;;;;51.40;25.42;;;6.40;99.90;;;;;;5074927;28;20109;-71
2022/03/03 09:37:56;;;;;;;46.15;23.92;;;6.60;99.90;;;;;;5091529;28;20048;-72
2022/03/03 09:40:23;;;;;;;50.35;24.88;;;6.80;99.90;;;;;;5089766;28;20131;-70
2022/03/03 09:43:04;;;;;;;49.78;24.17;;;6.90;99.90;;;;;;5070222;28;20040;-70
2022/03/03 09:45:31;;;;;;;48.53;23.65;;;7.00;99.90;;;;;;5073198;28;20048;-72
2022/03/03 09:47:59;;;;;;;48.40;24.70;;;7.20;99.90;;;;;;5075679;28;20068;-74
2022/03/03 09:50:26;;;;;;;48.30;23.88;;;7.30;99.90;;;;;;5088241;28;20040;-69
2022/03/03 09:52:53;;;;;;;49.35;24.63;;;7.40;99.90;;;;;;5076612;28;20032;-69
2022/03/03 09:55:20;;;;;;;46.78;24.30;;;7.50;99.90;;;;;;5074413;28;20388;-68
2022/03/03 09:57:47;;;;;;;45.35;23.00;;;7.70;99.90;;;;;;5079256;28;20125;-69
2022/03/03 10:00:13;;;;;;;44.83;23.85;;;7.90;99.90;;;;;;5089243;28;20511;-69
2022/03/03 10:03:08;;;;;;;46.42;23.55;;;8.00;99.90;;;;;;5073216;28;20048;-69
2022/03/03 10:05:47;;;;;;;48.47;23.55;;;8.00;99.90;;;;;;5090350;28;20036;-70
2022/03/03 10:08:22;;;;;;;51.13;24.02;;;8.10;99.90;;;;;;5090244;28;20487;-69
2022/03/03 10:10:51;;;;;;;43.72;24.75;;;8.30;99.90;;;;;;5071503;28;20062;-70
2022/03/03 10:13:18;;;;;;;43.08;22.75;;;8.40;99.90;;;;;;5083013;28;20058;-70
2022/03/03 10:15:59;;;;;;;43.33;23.10;;;8.50;99.90;;;;;;5088092;28;20040;-70
2022/03/03 10:18:26;;;;;;;43.85;22.63;;;8.50;99.90;;;;;;5091065;28;20112;-70
2022/03/03 10:20:55;;;;;;;45.20;23.45;;;8.70;99.90;;;;;;5073690;28;20552;-69
2022/03/03 10:23:30;;;;;;;42.08;23.45;;;8.80;99.90;;;;;;5090083;28;20040;-70
2022/03/03 10:25:57;;;;;;;44.65;22.42;;;8.90;99.90;;;;;;5091175;28;20052;-73
2022/03/03 10:28:24;;;;;;;44.53;23.73;;;8.90;99.90;;;;;;5089768;28;20093;-70
2022/03/03 10:31:02;;;;;;;42.35;24.00;;;8.80;99.90;;;;;;5074524;28;20082;-70
2022/03/03 10:33:34;;;;;;;42.05;23.42;;;8.90;99.90;;;;;;5072855;28;20043;-71
2022/03/03 10:36:14;;;;;;;43.08;22.42;;;9.00;99.90;;;;;;5066346;28;20040;-70
2022/03/03 10:38:50;;;;;;;42.60;23.02;;;9.20;99.90;;;;;;5088882;28;20518;-70
2022/03/03 10:41:56;;;;;;;39.28;22.15;;;9.20;99.90;;;;;;5090886;28;20044;-70
2022/03/03 10:44:28;;;;;;;41.85;21.65;;;9.20;99.90;;;;;;5049592;28;20059;-71
2022/03/03 10:47:04;;;;;;;41.17;22.50;;;9.30;99.90;;;;;;5053048;28;20050;-69
2022/03/03 10:49:31;;;;;;;43.17;23.33;;;9.40;99.90;;;;;;5064388;28;20044;-70
2022/03/03 10:52:20;;;;;;;43.13;23.20;;;9.60;99.90;;;;;;5091099;28;20052;-70
2022/03/03 10:54:55;;;;;;;36.40;21.13;;;9.70;99.90;;;;;;5087052;28;20043;-70
2022/03/03 10:57:42;;;;;;;34.30;19.90;;;9.90;99.90;;;;;;5089065;28;20052;-70
2022/03/03 11:00:20;;;;;;;37.53;21.33;;;9.90;99.90;;;;;;5091103;28;20040;-70
2022/03/03 11:02:48;;;;;;;35.28;19.33;;;9.80;99.90;;;;;;5068695;28;20048;-70
2022/03/03 11:05:16;;;;;;;36.17;19.15;;;9.90;99.90;;;;;;5061333;28;20052;-70
2022/03/03 11:07:44;;;;;;;37.22;19.58;;;9.90;99.90;;;;;;5086401;28;20057;-71
2022/03/03 11:10:13;;;;;;;33.50;19.20;;;10.00;99.90;;;;;;5067655;28;20055;-70
2022/03/03 11:12:40;;;;;;;36.28;21.05;;;10.10;99.90;;;;;;5089833;28;20044;-70
2022/03/03 11:15:08;;;;;;;41.83;22.73;;;10.20;99.90;;;;;;5088714;28;20047;-70
2022/03/03 11:17:35;;;;;;;36.42;20.45;;;10.30;99.90;;;;;;5078345;28;20047;-71
2022/03/03 11:20:01;;;;;;;39.65;22.65;;;10.30;99.00;;;;;;5091539;28;20035;-70
2022/03/03 11:22:30;;;;;;;39.58;23.05;;;10.50;99.90;;;;;;5090197;28;20036;-70
2022/03/03 11:25:01;;;;;;;39.42;22.33;;;10.60;99.90;;;;;;5062186;28;20044;-71
2022/03/03 11:27:35;;;;;;;41.75;23.55;;;10.50;99.90;;;;;;5087216;28;20044;-71
2022/03/03 11:30:20;;;;;;;39.72;22.83;;;10.50;99.90;;;;;;5090102;28;20036;-70
2022/03/03 11:33:15;;;;;;;42.03;22.92;;;10.70;99.90;;;;;;5085700;28;20476;-70
2022/03/03 11:35:59;;;;;;;43.38;22.80;;;10.80;99.90;;;;;;5082851;28;20487;-70
2022/03/03 11:38:43;;;;;;;37.72;22.27;;;10.80;98.90;;;;;;5073820;28;20416;-70
2022/03/03 11:41:09;;;;;;;38.70;22.25;;;10.80;99.90;;;;;;5099369;28;20482;-70
2022/03/03 11:43:49;;;;;;;41.33;22.52;;;10.90;93.00;;;;;;5091380;28;20048;-71
2022/03/03 11:46:43;;;;;;;41.10;23.17;;;10.90;93.20;;;;;;5091036;28;20047;-70
2022/03/03 11:49:20;;;;;;;36.95;22.35;;;10.90;91.60;;;;;;5084110;28;20093;-71
2022/03/03 11:51:50;;;;;;;40.92;22.85;;;11.00;99.60;;;;;;5073119;28;20051;-70
2022/03/03 11:54:25;;;;;;;41.73;23.20;;;11.20;99.90;;;;;;5088336;28;20100;-70
2022/03/03 11:57:03;;;;;;;40.03;24.23;;;11.40;96.00;;;;;;5089616;28;20047;-70
2022/03/03 11:59:41;;;;;;;40.42;23.27;;;11.50;94.00;;;;;;5090401;28;20047;-70
2022/03/03 12:02:08;;;;;;;38.47;22.40;;;11.70;96.00;;;;;;5072760;28;20059;-70
2022/03/03 12:04:37;;;;;;;37.70;22.90;;;12.10;96.20;;;;;;5072629;28;20414;-70
2022/03/03 12:07:03;;;;;;;38.80;22.98;;;12.30;96.40;;;;;;5089518;28;20047;-70
2022/03/03 12:09:32;;;;;;;35.67;21.20;;;12.60;97.20;;;;;;5072326;28;20035;-71
2022/03/03 12:12:12;;;;;;;35.28;21.42;;;12.70;90.10;;;;;;5073494;28;20044;-70
2022/03/03 12:14:49;;;;;;;30.13;19.25;;;13.00;88.10;;;;;;5072640;28;20043;-70
2022/03/03 12:17:45;;;;;;;34.83;20.92;;;13.20;91.10;;;;;;5085643;28;20379;-70
2022/03/03 12:20:24;;;;;;;28.30;18.38;;;13.40;88.30;;;;;;5083718;28;20040;-70
2022/03/03 12:23:13;;;;;;;26.27;16.90;;;13.50;78.80;;;;;;5090879;28;20036;-69
2022/03/03 12:25:51;;;;;;;32.22;19.58;;;13.70;79.30;;;;;;5075956;28;20047;-74
2022/03/03 12:28:47;;;;;;;30.58;19.02;;;14.00;82.90;;;;;;5075781;28;20488;-73
2022/03/03 12:31:39;;;;;;;26.00;18.38;;;14.40;86.30;;;;;;5092738;28;20080;-76
2022/03/03 12:34:07;;;;;;;28.38;19.02;;;14.80;77.30;;;;;;5092499;28;20048;-71
2022/03/03 12:36:44;;;;;;;27.08;17.38;;;15.30;78.30;;;;;;5091217;28;20097;-70
2022/03/03 12:39:10;;;;;;;27.27;18.95;;;15.10;77.40;;;;;;5081253;28;20074;-70
2022/03/03 12:41:38;;;;;;;27.63;18.08;;;15.30;78.50;;;;;;5075476;28;20036;-70
2022/03/03 12:44:10;;;;;;;27.17;17.23;;;15.20;78.40;;;;;;5084269;28;20037;-70
2022/03/03 12:46:38;;;;;;;27.02;17.35;;;15.40;76.00;;;;;;5092513;28;20075;-70
2022/03/03 12:49:09;;;;;;;22.45;16.90;;;15.70;75.20;;;;;;5092705;28;20044;-70